createdAt,value
2022-12-12T00:01:30.074Z,-5.37
2022-12-12T00:07:32.035Z,-5.37
2022-12-12T00:13:34.442Z,-5.53
2022-12-12T00:19:36.483Z,-5.39
2022-12-12T00:25:38.376Z,-5.47
2022-12-12T00:31:40.321Z,-5.54
2022-12-12T00:37:42.291Z,-5.47
2022-12-12T00:43:44.660Z,-5.54
2022-12-12T00:49:52.491Z,-5.68
2022-12-12T00:55:58.446Z,-5.66
2022-12-12T01:02:00.407Z,-5.63
2022-12-12T01:08:02.430Z,-5.90
2022-12-12T01:14:05.130Z,-5.79
2022-12-12T01:20:16.141Z,-5.97
2022-12-12T01:26:23.404Z,-5.76
2022-12-12T01:32:25.373Z,-5.83
2022-12-12T01:38:30.668Z,-6.05
2022-12-12T01:44:42.159Z,-6.17
2022-12-12T01:50:45.371Z,-6.07
2022-12-12T01:56:49.832Z,-6.02
2022-12-12T02:02:53.839Z,-6.11
2022-12-12T02:09:01.089Z,-6.08
2022-12-12T02:15:03.861Z,-6.04
2022-12-12T02:22:02.429Z,-6.01
2022-12-12T02:28:45.091Z,-6.20
2022-12-12T02:35:20.479Z,-6.13
2022-12-12T02:42:08.437Z,-6.16
2022-12-12T02:48:20.979Z,-6.22
2022-12-12T02:54:24.191Z,-6.13
2022-12-12T03:00:34.626Z,-6.07
2022-12-12T03:07:34.639Z,-5.88
2022-12-12T03:13:57.759Z,-5.88
2022-12-12T03:20:21.106Z,-5.85
2022-12-12T03:26:39.971Z,-5.90
2022-12-12T03:33:03.676Z,-5.75
2022-12-12T03:39:19.375Z,-5.92
2022-12-12T03:45:56.402Z,-6.11
2022-12-12T03:52:25.754Z,-6.24
2022-12-12T03:58:59.676Z,-6.28
2022-12-12T04:05:14.802Z,-6.29
2022-12-12T04:11:41.774Z,-6.36
2022-12-12T04:17:57.557Z,-6.44
2022-12-12T04:24:11.382Z,-6.25
2022-12-12T04:30:15.961Z,-6.20
2022-12-12T04:36:20.322Z,-6.15
2022-12-12T04:42:28.579Z,-6.25
2022-12-12T04:48:40.936Z,-6.23
2022-12-12T04:55:14.963Z,-6.22
2022-12-12T05:01:37.180Z,-6.48
2022-12-12T05:07:44.413Z,-6.43
2022-12-12T05:13:46.315Z,-6.27
2022-12-12T05:19:48.227Z,-6.35
2022-12-12T05:25:50.137Z,-6.34
2022-12-12T05:31:52.345Z,-6.30
2022-12-12T05:37:54.641Z,-6.33
2022-12-12T05:43:56.620Z,-6.27
2022-12-12T05:49:58.643Z,-6.17
2022-12-12T05:56:00.747Z,-6.20
2022-12-12T06:02:02.941Z,-6.22
2022-12-12T06:08:05.149Z,-6.36
2022-12-12T06:14:07.240Z,-6.39
2022-12-12T06:20:09.820Z,-6.52
2022-12-12T06:26:22.753Z,-6.48
2022-12-12T06:32:24.746Z,-6.68
2022-12-12T06:38:27.061Z,-6.61
2022-12-12T06:44:28.999Z,-6.84
2022-12-12T06:50:30.931Z,-6.80
2022-12-12T06:56:32.999Z,-6.73
2022-12-12T07:02:34.923Z,-6.70
2022-12-12T07:08:37.976Z,-6.77
2022-12-12T07:14:40.255Z,-6.81
2022-12-12T07:20:44.385Z,-6.81
2022-12-12T07:26:46.375Z,-6.87
2022-12-12T07:32:48.303Z,-6.80
2022-12-12T07:38:50.382Z,-6.80
2022-12-12T07:44:52.316Z,-6.60
2022-12-12T07:50:54.328Z,-6.45
2022-12-12T07:56:58.276Z,-6.49
2022-12-12T08:03:00.168Z,-6.43
2022-12-12T08:09:02.125Z,-6.28
2022-12-12T08:15:04.530Z,-6.10
2022-12-12T08:21:16.659Z,-6.10
2022-12-12T08:27:23.297Z,-6.00
2022-12-12T08:33:25.254Z,-5.95
2022-12-12T08:39:27.267Z,-5.92
2022-12-12T08:45:29.220Z,-5.86
2022-12-12T08:51:31.258Z,-5.82
2022-12-12T08:57:33.130Z,-5.71
2022-12-12T09:03:35.057Z,-5.95
2022-12-12T09:09:36.977Z,-5.75
2022-12-12T09:15:39.121Z,-5.83
2022-12-12T09:21:40.990Z,-5.83
2022-12-12T09:27:43.662Z,-5.54
2022-12-12T09:33:45.664Z,-5.35
2022-12-12T09:39:47.623Z,-5.17
2022-12-12T09:45:50.205Z,-5.06
2022-12-12T09:51:53.360Z,-4.95
2022-12-12T09:58:07.280Z,-4.87
2022-12-12T10:04:54.479Z,-4.82
2022-12-12T10:11:04.714Z,-4.75
2022-12-12T10:17:20.581Z,-4.52
2022-12-12T10:23:40.423Z,-4.47
2022-12-12T10:29:48.645Z,-4.43
2022-12-12T10:36:33.218Z,-4.38
2022-12-12T10:43:17.983Z,-4.12
2022-12-12T10:49:23.808Z,-3.87
2022-12-12T10:56:07.229Z,-3.57
2022-12-12T11:02:37.987Z,-3.43
2022-12-12T11:08:58.856Z,-3.18
2022-12-12T11:15:17.296Z,-2.85
2022-12-12T11:21:20.927Z,-2.24
2022-12-12T11:27:38.045Z,-1.92
2022-12-12T11:33:48.334Z,-1.13
2022-12-12T11:39:53.077Z,-0.18
2022-12-12T11:46:20.640Z,-0.37
2022-12-12T11:52:31.686Z,-0.95
2022-12-12T11:58:54.392Z,-1.11
2022-12-12T12:05:32.078Z,-1.33
2022-12-12T12:11:58.068Z,-1.57
2022-12-12T12:18:25.134Z,-1.59
2022-12-12T12:25:03.196Z,-1.77
2022-12-12T12:31:34.061Z,-1.73
2022-12-12T12:38:20.475Z,-1.05
2022-12-12T12:44:43.556Z,-0.96
2022-12-12T12:51:18.048Z,-0.80
2022-12-12T12:57:36.266Z,-0.56
2022-12-12T13:04:18.059Z,-1.19
2022-12-12T13:10:27.219Z,-1.96
2022-12-12T13:16:32.859Z,-2.10
2022-12-12T13:22:57.608Z,-2.27
2022-12-12T13:29:20.193Z,-2.52
2022-12-12T13:35:37.672Z,-2.86
2022-12-12T13:42:10.525Z,-2.98
2022-12-12T13:48:46.781Z,-3.18
2022-12-12T13:54:50.304Z,-3.27
2022-12-12T14:01:39.247Z,-3.19
2022-12-12T14:08:02.663Z,-3.41
2022-12-12T14:14:20.302Z,-3.52
2022-12-12T14:20:43.626Z,-3.56
2022-12-12T14:26:45.365Z,-3.59
2022-12-12T14:33:16.298Z,-3.73
2022-12-12T14:39:53.503Z,-3.85
2022-12-12T14:46:01.425Z,-3.87
2022-12-12T14:52:03.764Z,-3.90
2022-12-12T14:58:05.681Z,-3.92
2022-12-12T15:04:21.156Z,-4.05
2022-12-12T15:10:27.681Z,-4.23
2022-12-12T15:17:23.389Z,-4.29
2022-12-12T15:23:25.385Z,-4.29
2022-12-12T15:29:31.034Z,-4.30
2022-12-12T15:35:33.307Z,-4.34
2022-12-12T15:41:36.371Z,-4.46
2022-12-12T15:47:38.350Z,-4.53
2022-12-12T15:53:46.653Z,-4.59
2022-12-12T16:00:02.106Z,-4.77
2022-12-12T16:06:17.841Z,-4.86
2022-12-12T16:13:02.733Z,-4.94
2022-12-12T16:19:20.375Z,-5.05
2022-12-12T16:25:29.428Z,-5.17
2022-12-12T16:31:31.447Z,-5.10
2022-12-12T16:37:33.703Z,-5.06
2022-12-12T16:43:35.940Z,-4.90
2022-12-12T16:49:37.818Z,-4.80
2022-12-12T16:55:47.729Z,-4.91
2022-12-12T17:01:49.611Z,-5.01
2022-12-12T17:07:52.950Z,-5.05
2022-12-12T17:13:54.875Z,-5.14
2022-12-12T17:19:56.753Z,-5.05
2022-12-12T17:26:03.952Z,-4.98
2022-12-12T17:32:06.498Z,-5.10
2022-12-12T17:38:12.923Z,-5.16
2022-12-12T17:44:18.625Z,-5.23
2022-12-12T17:50:20.522Z,-5.23
2022-12-12T17:56:25.024Z,-5.29
2022-12-12T18:02:27.109Z,-5.26
2022-12-12T18:08:29.278Z,-5.37
2022-12-12T18:14:31.535Z,-5.66
2022-12-12T18:20:34.231Z,-5.64
2022-12-12T18:26:36.255Z,-5.62
2022-12-12T18:32:38.166Z,-5.55
2022-12-12T18:38:45.749Z,-5.44
2022-12-12T18:44:49.415Z,-5.57
2022-12-12T18:50:51.360Z,-5.63
2022-12-12T18:56:53.343Z,-5.69
2022-12-12T19:02:55.249Z,-5.72
2022-12-12T19:08:57.286Z,-5.66
2022-12-12T19:15:16.187Z,-5.74
2022-12-12T19:21:23.145Z,-5.82
2022-12-12T19:27:25.106Z,-5.87
2022-12-12T19:33:27.363Z,-5.97
2022-12-12T19:39:37.010Z,-6.04
2022-12-12T19:45:38.966Z,-6.00
2022-12-12T19:51:42.740Z,-6.16
2022-12-12T19:57:44.845Z,-6.13
2022-12-12T20:03:55.516Z,-6.29
2022-12-12T20:09:57.415Z,-6.43
2022-12-12T20:16:25.595Z,-6.50
2022-12-12T20:22:27.512Z,-6.41
2022-12-12T20:28:29.551Z,-6.47
2022-12-12T20:34:31.547Z,-6.49
2022-12-12T20:40:39.250Z,-6.51
2022-12-12T20:46:44.805Z,-6.56
2022-12-12T20:52:47.659Z,-6.58
2022-12-12T20:58:54.603Z,-6.45
2022-12-12T21:04:56.495Z,-6.53
2022-12-12T21:11:01.891Z,-6.55
2022-12-12T21:17:04.873Z,-6.56
2022-12-12T21:23:06.772Z,-6.59
2022-12-12T21:29:09.224Z,-6.65
2022-12-12T21:35:11.138Z,-6.67
2022-12-12T21:41:16.603Z,-6.72
2022-12-12T21:47:19.601Z,-6.57
2022-12-12T21:53:33.928Z,-6.66
2022-12-12T21:59:39.228Z,-6.72
2022-12-12T22:05:41.131Z,-6.68
2022-12-12T22:11:49.427Z,-6.67
2022-12-12T22:17:52.982Z,-6.60
2022-12-12T22:23:55.677Z,-6.66
2022-12-12T22:29:57.558Z,-6.71
2022-12-12T22:36:08.471Z,-6.87
2022-12-12T22:42:10.360Z,-6.85
2022-12-12T22:48:12.297Z,-6.87
2022-12-12T22:54:14.757Z,-6.91
2022-12-12T23:00:18.611Z,-6.88
2022-12-12T23:06:26.571Z,-6.89
2022-12-12T23:12:29.083Z,-6.96
2022-12-12T23:18:31.046Z,-6.97
2022-12-12T23:24:33.054Z,-7.07
2022-12-12T23:30:38.183Z,-7.14
2022-12-12T23:36:40.214Z,-7.16
2022-12-12T23:42:42.177Z,-7.23
2022-12-12T23:48:44.043Z,-7.22
2022-12-12T23:54:45.938Z,-7.34
